Albion, Idaho
Current Conditions -  °F | °C
As of 10:53 AM on Wednesday 26 Nov 2014 (Local Time) from KBYI Reporting Station
Clear Clear  
Wind Chill: 51°   Ceiling: Unl
Heat Index: 51°   Visibility: 10mi
Dew Point: 33°   Wind: 13mph
Humidity: 50%   Direction: 270°W
Pressure: 30.34"   Gusts: 22mph
Location:  42.41°N, 113.58°W
Report Text: KBYI 261753Z AUTO 27011G19KT 10SM CLR 11/01 A3034 RMK AO2 SLP264 T01060006 10106 20050 53007
Loading
Personal Weather Stations






























Interactive Weather Map New forecast layout! Learn more

10-Day Weather Forecast

Advertisements
Track Severe Weather on mobile